Time;durP1;ratioP1;P1;durP2;ratioP2;P2;SDS_P1;SDS_P2;PMS_P1;PMS_P2;Temp;Humidity;BMP_temperature;BMP_pressure;BME280_temperature;BME280_humidity;BME280_pressure;Samples;Min_cycle;Max_cycle;Signal;HPM_P1;HPM_P2
2023/12/23 00:01:15;;;;;;;4.88;1.83;;;;;;;8.41;70.88;97992.00;4945076;27;102947;-66
2023/12/23 00:03:43;;;;;;;7.22;2.00;;;;;;;8.34;70.71;98012.97;4945950;28;102733;-66
2023/12/23 00:06:14;;;;;;;5.88;2.00;;;;;;;8.37;70.31;98002.09;4922730;28;102827;-67
2023/12/23 00:08:42;;;;;;;3.92;2.20;;;;;;;8.25;70.76;97998.16;4939896;27;103769;-66
2023/12/23 00:11:10;;;;;;;4.55;1.83;;;;;;;8.28;70.35;97992.56;4926416;28;104290;-66
2023/12/23 00:13:40;;;;;;;4.53;1.90;;;;;;;8.36;70.81;98002.25;4926887;28;102871;-65
2023/12/23 00:16:08;;;;;;;4.28;1.80;;;;;;;8.26;71.50;98013.00;4939077;27;104003;-66
2023/12/23 00:18:36;;;;;;;4.18;1.98;;;;;;;8.23;71.88;98006.25;4942065;27;104063;-65
2023/12/23 00:21:05;;;;;;;5.40;1.90;;;;;;;8.20;71.82;98011.06;4939772;27;104666;-65
2023/12/23 00:23:33;;;;;;;4.38;2.22;;;;;;;8.24;71.11;98022.91;4945076;27;102651;-66
2023/12/23 00:26:03;;;;;;;7.10;2.40;;;;;;;8.21;71.00;98033.81;4944300;27;102799;-65
2023/12/23 00:28:31;;;;;;;4.72;2.25;;;;;;;8.16;72.38;98022.94;4920649;28;103303;-65
2023/12/23 00:31:01;;;;;;;6.20;1.85;;;;;;;8.17;72.81;98025.41;4921751;28;104131;-66
2023/12/23 00:33:29;;;;;;;3.83;1.90;;;;;;;8.18;72.91;98031.50;4919918;28;102682;-66
2023/12/23 00:35:57;;;;;;;6.47;2.72;;;;;;;8.14;72.47;98023.91;4927218;28;104181;-66
2023/12/23 00:38:27;;;;;;;5.47;2.42;;;;;;;8.02;73.74;98027.06;4935500;27;103528;-65
2023/12/23 00:40:56;;;;;;;4.43;2.20;;;;;;;8.01;73.33;98051.81;4924066;27;103185;-66
2023/12/23 00:43:24;;;;;;;6.45;2.13;;;;;;;7.91;74.00;98044.09;5008058;27;103317;-66
2023/12/23 00:45:52;;;;;;;3.33;2.25;;;;;;;7.93;74.15;98048.19;4938255;28;104002;-66
2023/12/23 00:48:21;;;;;;;2.92;1.77;;;;;;;7.82;74.64;98066.16;4945795;27;103126;-66
2023/12/23 00:50:50;;;;;;;6.80;2.38;;;;;;;7.83;74.83;98067.81;4918282;28;103309;-66
2023/12/23 00:53:18;;;;;;;4.10;2.40;;;;;;;7.87;75.47;98058.59;4925688;28;102811;-66
2023/12/23 00:55:46;;;;;;;5.03;2.03;;;;;;;7.76;75.54;98059.75;4924296;27;102706;-66
2023/12/23 00:58:14;;;;;;;3.97;1.80;;;;;;;7.88;75.75;98065.50;4946872;27;103214;-66
2023/12/23 01:00:45;;;;;;;5.15;2.53;;;;;;;7.72;75.80;98071.63;4926217;28;103237;-65
2023/12/23 01:03:13;;;;;;;3.55;1.80;;;;;;;7.62;75.91;98066.50;4930919;27;102772;-65
2023/12/23 01:05:42;;;;;;;6.57;2.33;;;;;;;7.67;75.45;98069.47;4942095;28;103921;-66
2023/12/23 01:08:13;;;;;;;5.82;2.30;;;;;;;7.78;75.61;98078.84;4919830;28;103214;-65
2023/12/23 01:10:43;;;;;;;5.70;2.20;;;;;;;7.80;74.96;98082.16;4926318;27;103233;-66
2023/12/23 01:13:13;;;;;;;5.25;2.28;;;;;;;7.75;74.84;98066.81;4928094;28;102626;-66
2023/12/23 01:15:42;;;;;;;4.43;1.70;;;;;;;7.81;74.97;98062.72;4944649;27;104299;-65
2023/12/23 01:18:10;;;;;;;5.65;2.33;;;;;;;7.79;74.24;98078.72;4928985;28;104186;-66
2023/12/23 01:20:40;;;;;;;3.60;1.65;;;;;;;7.81;74.06;98107.53;4926526;27;103293;-65
2023/12/23 01:23:09;;;;;;;4.97;2.13;;;;;;;7.79;73.31;98107.72;4922770;28;102684;-65
2023/12/23 01:25:37;;;;;;;6.50;1.85;;;;;;;7.73;73.61;98100.44;4923797;28;103161;-65
2023/12/23 01:28:06;;;;;;;4.07;1.70;;;;;;;7.77;72.97;98120.22;4928347;28;104129;-66
2023/12/23 01:30:34;;;;;;;5.07;2.20;;;;;;;7.83;73.14;98120.56;4940889;28;103172;-66
2023/12/23 01:33:02;;;;;;;4.82;1.92;;;;;;;7.83;73.54;98125.81;4926653;28;102988;-66
2023/12/23 01:35:31;;;;;;;3.15;1.67;;;;;;;7.82;73.65;98130.28;4921818;27;103046;-64
2023/12/23 01:37:59;;;;;;;5.55;2.28;;;;;;;7.79;73.50;98120.91;4929512;28;103355;-65
2023/12/23 01:40:35;;;;;;;4.82;2.03;;;;;;;7.66;73.84;98123.16;4924923;28;104170;-65
2023/12/23 01:43:03;;;;;;;4.90;1.90;;;;;;;7.75;73.67;98135.38;4943746;28;102607;-65
2023/12/23 01:45:33;;;;;;;5.43;2.08;;;;;;;7.79;73.88;98134.06;4938589;27;103809;-65
2023/12/23 01:48:03;;;;;;;5.63;2.10;;;;;;;7.82;74.25;98138.19;4926176;28;104168;-65
2023/12/23 01:50:31;;;;;;;7.95;2.33;;;;;;;7.68;74.38;98144.13;4942581;28;103335;-65
2023/12/23 01:53:00;;;;;;;7.68;2.65;;;;;;;7.73;74.51;98150.53;4942751;27;102946;-65
2023/12/23 01:55:31;;;;;;;9.70;2.40;;;;;;;7.76;73.81;98158.09;4924858;28;103220;-66
2023/12/23 01:58:03;;;;;;;6.67;2.40;;;;;;;7.77;73.72;98153.69;4946967;27;103243;-65
2023/12/23 02:00:31;;;;;;;10.63;2.15;;;;;;;7.80;73.77;98154.16;4923725;27;103432;-64
2023/12/23 02:03:00;;;;;;;6.03;2.28;;;;;;;7.86;73.30;98154.50;4932770;28;102665;-65
2023/12/23 02:05:29;;;;;;;5.50;2.10;;;;;;;7.77;72.71;98138.69;4919428;28;102992;-65
2023/12/23 02:07:57;;;;;;;4.55;2.30;;;;;;;7.83;73.11;98141.66;4930079;27;104895;-65
2023/12/23 02:10:26;;;;;;;7.30;2.58;;;;;;;7.75;72.93;98156.47;4942312;27;103199;-66
2023/12/23 02:13:03;;;;;;;5.97;2.53;;;;;;;7.79;72.98;98134.06;4922603;28;102682;-66
2023/12/23 02:15:43;;;;;;;6.72;2.45;;;;;;;7.77;73.35;98140.50;4927922;28;103887;-66
2023/12/23 02:18:11;;;;;;;6.70;2.92;;;;;;;7.80;72.95;98138.34;4921455;28;104839;-66
2023/12/23 02:20:42;;;;;;;6.70;2.83;;;;;;;7.79;73.54;98136.72;4940374;27;103179;-65
2023/12/23 02:23:13;;;;;;;6.05;2.53;;;;;;;7.78;73.63;98147.41;4927563;27;103057;-66
2023/12/23 02:25:41;;;;;;;6.35;2.63;;;;;;;7.75;73.43;98151.19;4930561;28;102716;-66
2023/12/23 02:28:10;;;;;;;5.00;2.25;;;;;;;7.78;73.17;98144.75;5012897;27;104222;-65
2023/12/23 02:30:44;;;;;;;7.05;2.40;;;;;;;7.75;73.72;98145.91;4925538;28;104141;-65
2023/12/23 02:33:12;;;;;;;8.95;2.10;;;;;;;7.82;73.18;98145.25;4928231;27;102832;-66
2023/12/23 02:35:43;;;;;;;6.28;2.15;;;;;;;7.60;75.23;98153.66;5015475;27;102995;-65
2023/12/23 02:38:12;;;;;;;6.47;2.25;;;;;;;7.67;75.45;98153.00;4925873;28;103300;-65
2023/12/23 02:40:41;;;;;;;5.88;2.25;;;;;;;7.64;74.82;98149.69;4950431;27;103046;-66
2023/12/23 02:43:09;;;;;;;5.35;1.95;;;;;;;7.56;74.08;98151.50;4939497;27;102753;-65
2023/12/23 02:45:37;;;;;;;8.07;2.05;;;;;;;7.70;74.53;98150.84;4922027;28;102726;-66
2023/12/23 02:48:06;;;;;;;5.35;2.65;;;;;;;7.74;73.67;98151.34;4944300;28;103988;-66
2023/12/23 02:50:34;;;;;;;5.88;2.50;;;;;;;7.73;74.23;98142.63;4941963;27;103069;-65
2023/12/23 02:53:03;;;;;;;7.18;2.42;;;;;;;7.75;73.81;98163.56;4932940;27;102631;-65
2023/12/23 02:55:33;;;;;;;6.57;2.38;;;;;;;7.76;73.19;98158.09;4929231;27;102795;-66
2023/12/23 02:58:02;;;;;;;7.20;2.47;;;;;;;7.73;72.86;98170.78;4926014;28;104099;-65
2023/12/23 03:00:29;;;;;;;5.95;2.20;;;;;;;7.77;72.74;98158.94;4927154;28;103335;-65
2023/12/23 03:02:57;;;;;;;6.43;2.53;;;;;;;7.75;73.03;98189.91;4962153;27;102824;-65
2023/12/23 03:05:25;;;;;;;7.43;2.80;;;;;;;7.74;72.68;98170.66;4923695;27;104088;-65
2023/12/23 03:07:54;;;;;;;4.90;2.53;;;;;;;7.72;72.42;98167.34;4938454;27;103332;-66
2023/12/23 03:10:22;;;;;;;4.97;2.25;;;;;;;7.79;71.52;98168.34;4957628;27;104185;-65
2023/12/23 03:12:51;;;;;;;4.72;2.33;;;;;;;7.83;72.35;98181.19;4925179;27;102785;-65
2023/12/23 03:15:22;;;;;;;6.68;2.28;;;;;;;7.80;71.86;98175.25;4921771;28;103257;-65
2023/12/23 03:17:52;;;;;;;6.35;2.13;;;;;;;7.82;71.50;98171.63;4926204;28;104984;-66
2023/12/23 03:20:26;;;;;;;3.72;1.98;;;;;;;7.83;71.92;98173.28;4927520;28;104135;-66
2023/12/23 03:22:57;;;;;;;6.35;2.40;;;;;;;7.82;71.13;98169.84;4924022;28;102973;-66
2023/12/23 03:25:25;;;;;;;3.55;1.90;;;;;;;7.85;71.20;98180.03;4941913;27;104268;-66
2023/12/23 03:27:54;;;;;;;4.03;1.83;;;;;;;7.79;71.61;98188.59;4923219;28;103564;-66
2023/12/23 03:30:24;;;;;;;5.72;2.10;;;;;;;7.85;70.94;98171.28;4923539;28;103232;-66
2023/12/23 03:32:54;;;;;;;6.43;2.17;;;;;;;7.83;71.29;98178.56;4927500;28;102734;-66
2023/12/23 03:35:22;;;;;;;7.05;2.50;;;;;;;7.79;71.11;98160.44;4923759;28;104007;-66
2023/12/23 03:37:50;;;;;;;5.78;2.83;;;;;;;7.83;71.08;98165.38;4919945;27;103013;-65
2023/12/23 03:40:18;;;;;;;5.03;2.22;;;;;;;7.88;70.79;98166.53;4923861;28;103222;-65
2023/12/23 03:42:46;;;;;;;6.88;2.10;;;;;;;7.84;71.26;98174.94;4925000;28;103168;-66
2023/12/23 03:45:17;;;;;;;5.80;2.08;;;;;;;7.88;70.90;98170.97;4926631;27;102838;-66
2023/12/23 03:47:44;;;;;;;4.10;2.03;;;;;;;7.89;71.42;98177.91;4928242;28;103864;-66
2023/12/23 03:50:12;;;;;;;3.90;2.03;;;;;;;7.83;71.10;98178.56;4920842;28;103252;-66
2023/12/23 03:52:40;;;;;;;7.20;2.10;;;;;;;7.86;70.56;98194.03;4924873;28;102726;-66
2023/12/23 03:55:09;;;;;;;3.75;2.10;;;;;;;7.92;70.65;98182.84;4954468;27;105340;-66
2023/12/23 03:57:37;;;;;;;5.15;2.17;;;;;;;7.90;70.36;98179.53;4925906;28;103595;-65
2023/12/23 04:00:08;;;;;;;9.43;2.08;;;;;;;7.97;70.01;98154.19;4926311;28;103494;-66
2023/12/23 04:02:43;;;;;;;5.13;2.15;;;;;;;7.91;70.12;98149.56;4942981;28;102573;-66
2023/12/23 04:05:11;;;;;;;3.80;2.08;;;;;;;7.94;70.15;98159.78;4917849;28;104145;-65
2023/12/23 04:07:39;;;;;;;4.45;2.03;;;;;;;7.92;70.21;98143.28;4939560;28;103067;-64
2023/12/23 04:10:08;;;;;;;5.07;1.80;;;;;;;7.95;70.05;98142.97;4945596;28;103089;-66
2023/12/23 04:12:36;;;;;;;5.38;1.83;;;;;;;7.95;70.36;98140.31;4925648;28;102916;-66
2023/12/23 04:15:05;;;;;;;6.60;2.42;;;;;;;7.85;70.32;98139.66;4925266;28;104626;-65
2023/12/23 04:17:34;;;;;;;6.35;2.17;;;;;;;7.95;70.39;98132.41;4927098;28;103050;-65
2023/12/23 04:20:05;;;;;;;3.28;1.90;;;;;;;7.95;70.10;98129.78;4939936;28;103171;-65
2023/12/23 04:22:33;;;;;;;5.78;2.25;;;;;;;7.95;70.11;98127.13;4925769;28;102647;-64
2023/12/23 04:25:01;;;;;;;6.55;2.08;;;;;;;8.01;70.16;98128.31;4930045;28;103048;-65
2023/12/23 04:27:30;;;;;;;5.57;2.10;;;;;;;7.98;69.52;98137.38;4926338;27;104329;-66
2023/12/23 04:29:58;;;;;;;3.28;1.80;;;;;;;7.96;69.24;98144.59;4941005;28;104231;-66
2023/12/23 04:32:28;;;;;;;5.22;1.95;;;;;;;7.97;69.16;98133.06;5013017;27;102726;-66
2023/12/23 04:34:59;;;;;;;3.47;1.60;;;;;;;7.97;69.42;98133.88;4920954;28;103925;-66
2023/12/23 04:37:30;;;;;;;4.88;1.88;;;;;;;7.94;68.79;98143.97;4922591;28;103232;-69
2023/12/23 04:39:58;;;;;;;4.25;1.88;;;;;;;7.94;69.42;98143.97;4934586;27;103064;-69
2023/12/23 04:42:26;;;;;;;6.55;1.95;;;;;;;7.90;68.62;98142.63;4937657;27;103807;-69
2023/12/23 04:44:54;;;;;;;3.17;1.60;;;;;;;7.92;68.67;98136.19;4922195;28;103805;-69
2023/12/23 04:47:22;;;;;;;2.50;1.60;;;;;;;7.94;69.01;98128.16;4932912;27;103288;-69
2023/12/23 04:49:50;;;;;;;2.92;1.55;;;;;;;7.94;68.15;98122.88;4937819;27;103180;-69
2023/12/23 04:52:18;;;;;;;4.18;1.85;;;;;;;7.96;67.79;98127.00;4939507;27;102943;-69
2023/12/23 04:54:50;;;;;;;4.20;1.60;;;;;;;7.97;68.27;98138.34;4945769;27;103954;-69
2023/12/23 04:57:18;;;;;;;2.90;1.70;;;;;;;7.95;68.04;98137.69;4919711;28;104223;-69
2023/12/23 04:59:46;;;;;;;4.38;1.80;;;;;;;8.05;68.60;98143.63;4928450;28;103390;-69
2023/12/23 05:02:14;;;;;;;3.25;1.50;;;;;;;8.05;68.10;98146.25;4925429;27;102786;-68
2023/12/23 05:04:46;;;;;;;3.80;1.63;;;;;;;7.96;67.61;98131.44;4924542;28;104405;-69
2023/12/23 05:07:14;;;;;;;4.72;1.92;;;;;;;7.99;67.40;98123.19;4922064;28;104344;-69
2023/12/23 05:09:42;;;;;;;3.13;1.60;;;;;;;8.00;67.83;98124.00;4918475;27;103190;-69
2023/12/23 05:12:11;;;;;;;4.47;1.92;;;;;;;7.96;67.86;98120.88;4944244;27;102639;-69
2023/12/23 05:14:41;;;;;;;6.18;1.80;;;;;;;7.97;67.54;98117.25;4937585;27;103170;-68
2023/12/23 05:17:12;;;;;;;3.90;1.70;;;;;;;8.05;67.04;98126.97;4941850;27;103811;-69
2023/12/23 05:19:40;;;;;;;2.13;1.60;;;;;;;7.97;67.17;98128.63;4926536;28;103256;-69
2023/12/23 05:22:08;;;;;;;3.28;1.40;;;;;;;7.96;66.83;98118.25;4923271;27;103116;-69
2023/12/23 05:24:37;;;;;;;3.47;1.73;;;;;;;7.92;67.40;98115.09;4927964;28;103079;-69
2023/12/23 05:27:05;;;;;;;3.05;1.58;;;;;;;7.99;67.11;98102.09;4929286;27;104367;-69
2023/12/23 05:29:35;;;;;;;3.25;1.60;;;;;;;7.97;67.04;98117.25;4927253;28;103194;-69
2023/12/23 05:32:04;;;;;;;2.72;1.30;;;;;;;8.00;67.21;98119.56;4928457;27;103026;-69
2023/12/23 05:34:34;;;;;;;4.30;1.48;;;;;;;8.00;68.10;98124.00;4942395;27;105037;-69
2023/12/23 05:37:03;;;;;;;3.75;1.65;;;;;;;8.00;67.91;98124.81;4944341;27;104282;-66
2023/12/23 05:39:30;;;;;;;3.55;1.58;;;;;;;8.01;68.47;98126.47;4925429;28;104648;-66
2023/12/23 05:42:01;;;;;;;1.15;1.05;;;;;;;8.01;68.67;98110.66;4927146;27;102638;-66
2023/12/23 05:44:30;;;;;;;2.60;1.23;;;;;;;7.97;68.56;98112.78;4945830;28;102912;-66
2023/12/23 05:47:00;;;;;;;1.45;1.20;;;;;;;7.95;69.09;98119.22;4949796;27;103261;-66
2023/12/23 05:49:30;;;;;;;1.58;1.13;;;;;;;7.92;69.76;98124.84;4940302;27;103508;-66
2023/12/23 05:52:00;;;;;;;1.67;1.20;;;;;;;7.94;69.00;98115.78;4938644;28;102729;-66
2023/12/23 05:54:31;;;;;;;0.80;0.80;;;;;;;7.86;70.01;98114.94;4939689;27;105075;-66
2023/12/23 05:56:59;;;;;;;1.02;0.95;;;;;;;7.91;69.60;98102.09;4942361;27;103107;-66
2023/12/23 05:59:27;;;;;;;2.45;1.10;;;;;;;7.98;69.71;98095.19;4946101;27;103403;-66
2023/12/23 06:01:55;;;;;;;1.85;1.00;;;;;;;8.00;69.37;98087.91;4946888;27;102790;-66
2023/12/23 06:04:25;;;;;;;1.60;1.10;;;;;;;7.96;69.43;98094.50;5007494;27;102845;-66
2023/12/23 06:06:55;;;;;;;1.48;1.00;;;;;;;7.93;69.53;98094.84;4935394;28;103038;-66
2023/12/23 06:09:23;;;;;;;0.90;0.90;;;;;;;8.08;69.46;98101.09;4944846;28;103274;-66
2023/12/23 06:11:51;;;;;;;1.02;0.90;;;;;;;8.01;69.67;98086.91;4941380;28;102816;-66
2023/12/23 06:14:19;;;;;;;2.00;1.08;;;;;;;7.96;69.79;98083.97;4944396;27;103308;-66
2023/12/23 06:16:47;;;;;;;1.33;1.10;;;;;;;8.02;69.52;98085.94;4941915;27;103039;-66
2023/12/23 06:19:15;;;;;;;0.70;0.70;;;;;;;8.04;70.13;98072.56;4948556;28;103268;-66
2023/12/23 06:21:46;;;;;;;0.63;0.63;;;;;;;7.97;70.19;98070.59;4923269;28;102636;-66
2023/12/23 06:24:14;;;;;;;1.75;0.93;;;;;;;8.04;69.94;98075.22;4924482;28;103994;-66
2023/12/23 06:26:42;;;;;;;1.65;0.98;;;;;;;7.97;69.34;98082.97;4941680;27;105327;-66
2023/12/23 06:29:13;;;;;;;2.28;1.15;;;;;;;7.99;69.76;98081.00;4938183;28;103231;-66
2023/12/23 06:31:43;;;;;;;1.38;1.02;;;;;;;8.02;69.75;98080.66;4965524;27;102969;-66
2023/12/23 06:34:13;;;;;;;2.40;1.20;;;;;;;7.99;69.89;98099.47;4945399;28;104851;-66
2023/12/23 06:36:42;;;;;;;3.25;1.00;;;;;;;8.01;70.13;98089.56;4944216;27;104444;-66
2023/12/23 06:39:11;;;;;;;1.00;0.90;;;;;;;8.03;69.89;98090.22;4925168;28;103429;-66
2023/12/23 06:41:39;;;;;;;2.10;0.95;;;;;;;8.00;69.85;98085.25;4942051;27;102634;-65
2023/12/23 06:44:07;;;;;;;0.95;0.80;;;;;;;8.04;69.63;98091.03;4939294;27;104168;-66
2023/12/23 06:46:35;;;;;;;0.85;0.82;;;;;;;7.97;69.87;98090.88;4939898;27;103101;-65
2023/12/23 06:49:03;;;;;;;1.30;1.00;;;;;;;7.95;69.34;98088.41;4940337;28;103427;-65
2023/12/23 06:51:32;;;;;;;0.70;0.70;;;;;;;8.01;69.47;98081.66;4938761;28;103057;-65
2023/12/23 06:54:00;;;;;;;1.17;0.95;;;;;;;8.02;70.05;98077.19;4946156;27;103684;-66
2023/12/23 06:56:32;;;;;;;1.83;0.90;;;;;;;8.01;69.74;98083.47;4944614;27;103030;-66
2023/12/23 06:59:01;;;;;;;1.45;0.80;;;;;;;8.05;69.68;98075.03;4927474;28;103108;-65
2023/12/23 07:01:37;;;;;;;1.85;0.98;;;;;;;8.02;70.06;98077.19;4929261;28;102718;-65
2023/12/23 07:04:06;;;;;;;0.88;0.88;;;;;;;7.95;70.55;98071.75;4943400;28;103190;-65
2023/12/23 07:06:33;;;;;;;0.95;0.90;;;;;;;7.92;70.02;98087.91;4918952;27;103280;-66
2023/12/23 07:09:02;;;;;;;1.40;0.70;;;;;;;7.90;70.81;98079.34;4937529;27;103346;-66
2023/12/23 07:11:33;;;;;;;1.42;1.20;;;;;;;7.86;70.49;98084.16;4926591;27;102770;-66
2023/12/23 07:14:01;;;;;;;0.98;0.82;;;;;;;7.89;70.23;98083.81;4926114;27;104069;-66
2023/12/23 07:16:30;;;;;;;1.35;1.10;;;;;;;8.03;70.04;98090.22;4939758;27;103248;-66
2023/12/23 07:18:58;;;;;;;0.80;0.80;;;;;;;7.93;70.33;98089.56;4915710;27;103201;-66
2023/12/23 07:21:28;;;;;;;2.00;1.50;;;;;;;7.93;70.71;98094.84;4921882;28;102831;-66
2023/12/23 07:23:57;;;;;;;1.05;0.90;;;;;;;7.92;70.10;98087.91;4925152;28;102801;-66
2023/12/23 07:26:25;;;;;;;0.90;0.90;;;;;;;7.93;70.44;98095.66;4914601;27;104714;-66
2023/12/23 07:28:56;;;;;;;1.15;1.00;;;;;;;7.99;70.31;98096.84;4934489;27;103202;-66
2023/12/23 07:31:24;;;;;;;1.33;1.00;;;;;;;7.90;69.74;98110.97;4939209;27;102964;-67
2023/12/23 07:33:52;;;;;;;2.38;1.27;;;;;;;7.95;69.90;98111.31;4941322;27;104027;-68
2023/12/23 07:36:21;;;;;;;0.95;0.80;;;;;;;7.99;69.47;98115.28;4938615;27;104014;-67
2023/12/23 07:38:49;;;;;;;1.85;1.13;;;;;;;8.01;69.62;98121.22;4928821;27;104173;-68
2023/12/23 07:41:17;;;;;;;1.80;1.00;;;;;;;7.97;69.01;98127.81;4944629;28;102619;-68
2023/12/23 07:43:45;;;;;;;1.05;0.80;;;;;;;8.07;69.22;98123.19;4974138;27;102830;-68
2023/12/23 07:46:15;;;;;;;1.95;0.93;;;;;;;8.06;69.03;98113.63;5008919;27;103120;-66
2023/12/23 07:48:43;;;;;;;0.80;0.80;;;;;;;8.00;69.69;98127.47;4941849;28;103213;-66
2023/12/23 07:51:12;;;;;;;0.93;0.80;;;;;;;7.99;69.03;98139.03;4930351;28;103112;-66
2023/12/23 07:53:40;;;;;;;3.33;1.25;;;;;;;8.00;69.55;98137.19;4930382;28;102949;-65
2023/12/23 07:56:08;;;;;;;1.05;0.90;;;;;;;7.92;69.45;98117.75;4925097;27;104381;-66
2023/12/23 07:58:37;;;;;;;2.05;0.90;;;;;;;7.95;68.82;98120.06;4941086;28;103428;-65
2023/12/23 08:01:05;;;;;;;2.05;1.08;;;;;;;7.97;68.82;98133.06;4927628;27;103165;-65
2023/12/23 08:03:34;;;;;;;1.17;1.00;;;;;;;8.05;68.23;98140.97;4938512;27;102698;-65
2023/12/23 08:06:03;;;;;;;1.73;1.00;;;;;;;8.00;68.59;98148.56;4943417;27;104927;-65
2023/12/23 08:08:34;;;;;;;1.05;0.90;;;;;;;8.08;68.29;98143.31;4943891;27;103183;-65
2023/12/23 08:11:02;;;;;;;1.73;1.02;;;;;;;8.05;68.34;98126.97;4942982;27;102633;-66
2023/12/23 08:13:34;;;;;;;1.10;1.00;;;;;;;8.12;69.05;98136.69;4923267;28;102739;-66
2023/12/23 08:16:07;;;;;;;1.15;0.80;;;;;;;8.12;68.51;98134.06;4938933;27;103311;-67
2023/12/23 08:18:36;;;;;;;2.17;1.02;;;;;;;8.10;68.56;98132.59;4939536;28;103682;-66
2023/12/23 08:21:06;;;;;;;2.03;1.30;;;;;;;8.14;68.69;98139.97;4939122;27;103996;-66
2023/12/23 08:23:34;;;;;;;1.25;0.90;;;;;;;8.06;68.16;98145.28;4944119;27;102838;-66
2023/12/23 08:26:02;;;;;;;1.60;0.90;;;;;;;8.09;67.83;98139.66;4938554;27;103267;-66
2023/12/23 08:28:30;;;;;;;1.30;1.20;;;;;;;8.09;68.15;98126.47;4937627;27;103254;-65
2023/12/23 08:30:58;;;;;;;1.80;1.20;;;;;;;8.18;67.51;98118.56;4921876;27;102704;-66
2023/12/23 08:33:26;;;;;;;1.20;1.10;;;;;;;8.19;67.04;98131.59;4937599;27;102699;-65
2023/12/23 08:35:56;;;;;;;0.70;0.70;;;;;;;8.23;67.62;98121.53;4928346;28;104380;-65
2023/12/23 08:38:24;;;;;;;1.25;0.98;;;;;;;8.29;67.03;98126.94;4939732;27;103667;-65
2023/12/23 08:40:52;;;;;;;1.10;1.00;;;;;;;8.26;66.95;98126.47;4919238;28;102685;-66
2023/12/23 08:43:20;;;;;;;0.65;0.63;;;;;;;8.23;66.22;98132.91;4936111;27;102779;-66
2023/12/23 08:45:48;;;;;;;1.10;1.00;;;;;;;8.32;66.65;98139.00;4922979;27;105644;-65
2023/12/23 08:48:18;;;;;;;1.10;1.00;;;;;;;8.34;66.37;98128.25;4935781;27;103260;-65
2023/12/23 08:50:47;;;;;;;1.13;0.95;;;;;;;8.33;66.32;98137.97;4936764;27;103803;-66
2023/12/23 08:53:19;;;;;;;0.93;0.70;;;;;;;8.31;66.58;98124.16;4921263;28;104248;-65
2023/12/23 08:55:53;;;;;;;2.15;0.95;;;;;;;8.33;66.43;98126.59;4925316;28;104037;-66
2023/12/23 08:58:21;;;;;;;0.60;0.60;;;;;;;8.38;66.37;98106.63;4920947;28;103280;-66
2023/12/23 09:00:50;;;;;;;1.45;0.88;;;;;;;8.41;66.36;98114.22;4919074;28;102688;-65
2023/12/23 09:03:18;;;;;;;0.95;0.75;;;;;;;8.37;65.85;98112.94;4926013;28;102891;-65
2023/12/23 09:05:46;;;;;;;1.45;0.80;;;;;;;8.38;65.84;98108.47;4944320;27;103281;-65
2023/12/23 09:08:15;;;;;;;0.55;0.55;;;;;;;8.32;65.39;98109.97;4940531;27;103279;-65
2023/12/23 09:10:44;;;;;;;1.67;0.70;;;;;;;8.41;65.91;98121.31;4943948;28;104636;-65
2023/12/23 09:13:12;;;;;;;0.80;0.80;;;;;;;8.42;65.35;98115.88;4942643;27;104128;-65
2023/12/23 09:15:40;;;;;;;0.65;0.65;;;;;;;8.36;65.64;98116.53;4942251;27;103186;-66
2023/12/23 09:18:08;;;;;;;0.63;0.60;;;;;;;8.39;65.94;98118.03;4939871;27;104384;-65
2023/12/23 09:20:39;;;;;;;0.75;0.68;;;;;;;8.43;65.99;98122.78;4943458;27;102972;-67
2023/12/23 09:23:07;;;;;;;0.60;0.60;;;;;;;8.46;65.33;98124.28;4939950;27;103741;-66
2023/12/23 09:25:35;;;;;;;1.15;0.98;;;;;;;8.38;66.01;98125.09;4930431;27;103270;-66
2023/12/23 09:28:05;;;;;;;0.80;0.77;;;;;;;8.48;66.13;98130.25;4947495;27;103174;-65
2023/12/23 09:30:33;;;;;;;0.65;0.60;;;;;;;8.42;65.34;98160.75;4943101;27;103036;-68
2023/12/23 09:33:01;;;;;;;0.65;0.65;;;;;;;8.42;65.86;98158.09;4942678;27;103916;-68
2023/12/23 09:35:35;;;;;;;0.70;0.70;;;;;;;8.39;65.08;98157.59;4942553;27;103225;-67
2023/12/23 09:38:04;;;;;;;0.60;0.60;;;;;;;8.37;65.57;98163.06;4938334;27;103264;-68
2023/12/23 09:40:32;;;;;;;0.95;0.80;;;;;;;8.45;65.46;98173.63;4942009;27;102913;-67
2023/12/23 09:43:00;;;;;;;0.68;0.68;;;;;;;8.44;65.88;98171.94;4942639;27;103090;-67
2023/12/23 09:45:31;;;;;;;0.93;0.80;;;;;;;8.41;65.47;98166.16;4943880;27;103325;-67
2023/12/23 09:47:59;;;;;;;0.47;0.47;;;;;;;8.42;65.21;98168.66;4943588;28;103258;-68
2023/12/23 09:50:27;;;;;;;0.52;0.52;;;;;;;8.51;65.09;98187.97;4942800;27;102763;-68
2023/12/23 09:52:57;;;;;;;1.55;0.60;;;;;;;8.45;65.14;98168.34;4936035;27;102698;-68
2023/12/23 09:55:26;;;;;;;0.70;0.70;;;;;;;8.48;64.74;98176.94;4942108;27;103187;-67
2023/12/23 09:57:57;;;;;;;0.68;0.68;;;;;;;8.45;65.32;98173.63;4940843;27;103234;-66
2023/12/23 10:00:25;;;;;;;0.82;0.60;;;;;;;8.51;64.96;98164.22;4942809;27;102577;-68
2023/12/23 10:02:54;;;;;;;0.65;0.65;;;;;;;8.50;64.21;98164.38;4942530;27;102711;-68
2023/12/23 10:05:23;;;;;;;1.80;0.60;;;;;;;8.55;64.57;98164.69;4920364;27;104650;-69
2023/12/23 10:08:07;;;;;;;0.68;0.68;;;;;;;8.62;64.86;98173.63;4938564;28;103244;-68
2023/12/23 10:10:51;;;;;;;1.10;0.85;;;;;;;8.68;64.26;98167.63;4922388;28;102876;-67
2023/12/23 10:13:31;;;;;;;1.05;0.70;;;;;;;8.68;64.86;98175.56;4921374;27;102773;-67
2023/12/23 10:16:10;;;;;;;0.70;0.70;;;;;;;8.63;64.35;98172.59;4929602;28;103105;-68
2023/12/23 10:18:46;;;;;;;0.75;0.75;;;;;;;8.73;64.77;98175.88;4928832;27;103078;-68
2023/12/23 10:21:15;;;;;;;0.60;0.60;;;;;;;8.61;65.45;98161.41;4922411;28;103013;-68
2023/12/23 10:23:43;;;;;;;0.50;0.50;;;;;;;8.59;64.93;98161.56;4924897;27;104347;-69
2023/12/23 10:26:13;;;;;;;0.70;0.70;;;;;;;8.57;64.89;98171.47;4943846;28;103309;-68
2023/12/23 10:28:44;;;;;;;0.70;0.70;;;;;;;8.69;64.76;98158.72;4925311;27;103316;-69
2023/12/23 10:31:36;;;;;;;0.80;0.80;;;;;;;8.64;64.97;98155.78;4924520;28;103245;-68
2023/12/23 10:34:11;;;;;;;0.65;0.60;;;;;;;8.70;65.04;98157.75;4944045;27;102796;-68
2023/12/23 10:36:42;;;;;;;0.70;0.70;;;;;;;8.85;64.63;98151.75;4942782;27;104243;-67
2023/12/23 10:39:17;;;;;;;0.50;0.50;;;;;;;8.71;64.55;98156.75;4946845;27;103181;-68
2023/12/23 10:41:58;;;;;;;0.68;0.68;;;;;;;8.71;65.00;98159.41;4939579;27;102623;-68
2023/12/23 10:44:28;;;;;;;0.60;0.60;;;;;;;8.70;64.74;98155.09;4924852;27;103974;-68
2023/12/23 10:46:57;;;;;;;0.75;0.45;;;;;;;8.74;64.66;98166.97;4946087;27;104121;-68
2023/12/23 10:49:27;;;;;;;0.60;0.60;;;;;;;8.77;64.96;98171.09;4936213;27;103214;-67
2023/12/23 10:51:56;;;;;;;0.50;0.50;;;;;;;8.74;64.94;98169.59;4929666;27;102759;-68
2023/12/23 10:54:27;;;;;;;0.50;0.50;;;;;;;8.68;65.06;98162.34;4922471;28;103211;-68
2023/12/23 10:57:05;;;;;;;0.60;0.60;;;;;;;8.62;65.25;98173.63;4927685;27;103887;-68
2023/12/23 10:59:36;;;;;;;1.13;0.70;;;;;;;8.70;65.17;98172.75;4945078;27;102891;-69
2023/12/23 11:02:14;;;;;;;0.70;0.70;;;;;;;8.69;65.11;98173.75;4937124;27;102695;-68
2023/12/23 11:04:52;;;;;;;0.80;0.80;;;;;;;8.78;65.41;98168.28;4942190;27;102986;-68
2023/12/23 11:07:28;;;;;;;1.27;1.10;;;;;;;8.66;65.18;98180.19;4922084;28;103247;-68
2023/12/23 11:10:01;;;;;;;1.50;0.75;;;;;;;8.69;65.21;98179.03;4945051;27;103179;-68
2023/12/23 11:12:31;;;;;;;1.02;1.02;;;;;;;8.64;65.26;98166.31;4934225;27;102809;-68
2023/12/23 11:15:00;;;;;;;0.60;0.60;;;;;;;8.57;64.70;98160.09;4940586;27;102810;-68
2023/12/23 11:17:32;;;;;;;0.50;0.50;;;;;;;8.63;65.01;98162.03;4935639;27;103328;-68
2023/12/23 11:20:04;;;;;;;0.82;0.73;;;;;;;8.70;64.88;98157.75;4943574;27;103363;-68
2023/12/23 11:22:38;;;;;;;0.55;0.55;;;;;;;8.61;64.85;98169.31;4917790;28;103196;-67
2023/12/23 11:25:38;;;;;;;0.93;0.88;;;;;;;8.71;64.92;98177.88;4921433;28;103132;-67
2023/12/23 11:28:10;;;;;;;0.70;0.65;;;;;;;8.82;64.48;98168.75;4940153;27;103282;-67
2023/12/23 11:30:39;;;;;;;0.60;0.60;;;;;;;8.84;64.21;98181.78;4939101;27;103206;-67
2023/12/23 11:33:08;;;;;;;0.70;0.70;;;;;;;8.69;65.14;98179.03;4939128;27;102666;-67
2023/12/23 11:35:38;;;;;;;1.25;0.80;;;;;;;8.79;64.88;98180.47;4940668;27;104113;-68
2023/12/23 11:38:10;;;;;;;0.70;0.70;;;;;;;8.75;64.66;98163.34;4920243;27;104203;-68
2023/12/23 11:40:39;;;;;;;1.00;0.80;;;;;;;8.84;64.73;98153.56;4921911;28;103205;-68
2023/12/23 11:43:06;;;;;;;0.70;0.70;;;;;;;8.70;64.57;98178.88;4936866;27;102688;-67
2023/12/23 11:45:36;;;;;;;0.88;0.60;;;;;;;8.82;64.67;98176.69;4917722;28;102877;-67